createdAt,value
2023-03-13T00:00:46.953Z,28.45
2023-03-13T00:05:49.946Z,27.10
2023-03-13T00:10:52.305Z,37.75
2023-03-13T00:16:05.222Z,38.70
2023-03-13T00:21:09.439Z,27.67
2023-03-13T00:26:14.492Z,27.70
2023-03-13T00:31:23.011Z,18.63
2023-03-13T00:36:31.297Z,18.73
2023-03-13T00:41:34.790Z,28.13
2023-03-13T00:46:37.574Z,19.67
2023-03-13T00:51:40.958Z,16.60
2023-03-13T00:56:44.938Z,20.48
2023-03-13T01:01:48.026Z,23.40
2023-03-13T01:06:50.300Z,18.95
2023-03-13T01:11:52.475Z,24.20
2023-03-13T01:16:54.673Z,10.07
2023-03-13T01:21:56.831Z,29.38
2023-03-13T01:27:00.209Z,19.20
2023-03-13T01:32:02.569Z,11.13
2023-03-13T01:37:04.802Z,19.77
2023-03-13T01:42:07.267Z,11.00
2023-03-13T01:47:09.930Z,8.98
2023-03-13T01:52:32.240Z,25.88
2023-03-13T01:57:53.184Z,38.15
2023-03-13T02:03:04.150Z,36.90
2023-03-13T02:08:30.411Z,32.13
2023-03-13T02:13:32.660Z,33.78
2023-03-13T02:18:39.325Z,39.85
2023-03-13T02:24:05.657Z,39.38
2023-03-13T02:29:09.543Z,45.97
2023-03-13T02:34:14.324Z,44.78
2023-03-13T02:39:20.442Z,40.75
2023-03-13T02:44:23.290Z,38.20
2023-03-13T02:49:30.214Z,33.72
2023-03-13T02:54:38.253Z,34.67
2023-03-13T02:59:42.669Z,43.03
2023-03-13T03:04:44.978Z,34.85
2023-03-13T03:09:47.442Z,28.90
2023-03-13T03:14:55.689Z,15.68
2023-03-13T03:20:03.225Z,18.73
2023-03-13T03:25:06.450Z,23.35
2023-03-13T03:30:11.115Z,23.27
2023-03-13T03:35:14.519Z,39.25
2023-03-13T03:40:17.391Z,29.58
2023-03-13T03:45:22.784Z,41.85
2023-03-13T03:50:26.843Z,41.63
2023-03-13T03:55:38.992Z,26.47
2023-03-13T04:00:50.098Z,40.85
2023-03-13T04:05:52.837Z,33.78
2023-03-13T04:10:57.674Z,34.92
2023-03-13T04:16:10.448Z,30.60
2023-03-13T04:21:14.085Z,37.50
2023-03-13T04:26:23.790Z,37.45
2023-03-13T04:31:30.031Z,41.83
2023-03-13T04:36:42.316Z,36.85
2023-03-13T04:42:09.010Z,45.72
2023-03-13T04:47:24.022Z,43.67
2023-03-13T04:52:47.077Z,36.55
2023-03-13T04:58:11.743Z,60.35
2023-03-13T05:03:37.125Z,39.97
2023-03-13T05:09:08.356Z,32.83
2023-03-13T05:14:27.445Z,43.33
2023-03-13T05:19:50.674Z,39.97
2023-03-13T05:25:11.330Z,36.10
2023-03-13T05:30:31.913Z,40.42
2023-03-13T05:35:47.139Z,49.28
2023-03-13T05:41:07.773Z,47.10
2023-03-13T05:46:29.048Z,48.25
2023-03-13T05:51:54.037Z,39.42
2023-03-13T05:57:14.953Z,48.77
2023-03-13T06:02:41.773Z,40.30
2023-03-13T06:07:51.146Z,30.13
2023-03-13T06:12:54.742Z,45.40
2023-03-13T06:17:59.167Z,50.10
2023-03-13T06:23:01.322Z,35.67
2023-03-13T06:28:03.550Z,40.70
2023-03-13T06:33:07.597Z,38.13
2023-03-13T06:38:11.736Z,41.25
2023-03-13T06:43:14.105Z,45.47
2023-03-13T06:48:17.884Z,53.42
2023-03-13T06:53:23.689Z,45.20
2023-03-13T06:58:32.464Z,46.50
2023-03-13T07:03:37.456Z,48.78
2023-03-13T07:08:40.078Z,56.90
2023-03-13T07:13:42.624Z,44.70
2023-03-13T07:18:45.015Z,48.97
2023-03-13T07:23:47.734Z,48.80
2023-03-13T07:28:50.825Z,40.80
2023-03-13T07:33:56.620Z,41.47
2023-03-13T07:39:00.129Z,50.78
2023-03-13T07:44:02.898Z,36.72
2023-03-13T07:49:06.845Z,39.17
2023-03-13T07:54:09.165Z,46.42
2023-03-13T07:59:14.461Z,46.80
2023-03-13T08:04:16.728Z,42.13
2023-03-13T08:09:18.878Z,45.88
2023-03-13T08:14:21.237Z,45.45
2023-03-13T08:19:23.481Z,34.65
2023-03-13T08:24:25.729Z,50.78
2023-03-13T08:29:28.116Z,43.92
2023-03-13T08:34:30.308Z,41.50
2023-03-13T08:39:32.447Z,45.83
2023-03-13T08:44:34.654Z,50.75
2023-03-13T08:49:37.003Z,46.97
2023-03-13T08:54:39.241Z,38.60
2023-03-13T08:59:41.872Z,50.35
2023-03-13T09:04:44.635Z,41.75
2023-03-13T09:09:47.133Z,50.92
2023-03-13T09:14:49.333Z,46.38
2023-03-13T09:20:00.045Z,45.10
2023-03-13T09:25:04.030Z,53.22
2023-03-13T09:30:08.992Z,52.28
2023-03-13T09:35:11.468Z,46.83
2023-03-13T09:40:21.574Z,38.83
2023-03-13T09:45:45.178Z,30.95
2023-03-13T09:51:06.001Z,31.95
2023-03-13T09:56:18.319Z,39.67
2023-03-13T10:01:28.582Z,42.13
2023-03-13T10:06:38.524Z,44.15
2023-03-13T10:11:50.892Z,26.55
2023-03-13T10:17:16.284Z,37.22
2023-03-13T10:22:22.103Z,48.38
2023-03-13T10:27:28.905Z,46.70
2023-03-13T10:32:31.827Z,53.20
2023-03-13T10:37:44.418Z,38.90
2023-03-13T10:42:47.551Z,45.90
2023-03-13T10:48:10.744Z,49.95
2023-03-13T10:53:23.517Z,41.85
2023-03-13T10:58:34.904Z,47.20
2023-03-13T11:03:37.198Z,51.30
2023-03-13T11:08:43.010Z,39.65
2023-03-13T11:13:46.264Z,42.40
2023-03-13T11:19:00.389Z,40.80
2023-03-13T11:24:32.457Z,31.55
2023-03-13T11:29:46.431Z,21.95
2023-03-13T11:34:53.451Z,35.58
2023-03-13T11:40:12.526Z,36.60
2023-03-13T11:45:54.241Z,35.08
2023-03-13T11:56:25.839Z,36.30
2023-03-13T12:01:45.534Z,28.88
2023-03-13T12:07:21.490Z,32.35
2023-03-13T12:12:52.844Z,29.20
2023-03-13T12:18:04.374Z,37.80
2023-03-13T12:23:35.681Z,37.80
2023-03-13T12:28:56.963Z,30.77
2023-03-13T12:34:41.657Z,47.55
2023-03-13T12:39:51.209Z,29.73
2023-03-13T12:44:54.286Z,39.15
2023-03-13T12:50:27.026Z,28.90
2023-03-13T12:55:51.236Z,33.35
2023-03-13T13:00:55.418Z,25.30
2023-03-13T13:06:10.703Z,16.08
2023-03-13T13:11:37.602Z,40.55
2023-03-13T13:16:44.541Z,19.25
2023-03-13T13:22:08.237Z,32.20
2023-03-13T13:27:37.806Z,53.15
2023-03-13T13:32:56.731Z,45.05
2023-03-13T13:38:17.791Z,20.25
2023-03-13T13:43:23.953Z,19.55
2023-03-13T13:48:32.686Z,17.77
2023-03-13T13:53:56.155Z,27.35
2023-03-13T13:59:07.156Z,17.40
2023-03-13T14:04:24.181Z,21.20
2023-03-13T14:09:37.275Z,19.42
2023-03-13T14:14:39.625Z,23.27
2023-03-13T14:19:43.337Z,19.27
2023-03-13T14:24:58.234Z,12.32
2023-03-13T14:30:05.649Z,20.27
2023-03-13T14:35:10.010Z,16.15
2023-03-13T14:40:30.541Z,14.68
2023-03-13T14:45:39.482Z,14.30
2023-03-13T14:50:42.940Z,24.90
2023-03-13T14:55:49.234Z,11.88
2023-03-13T15:00:52.994Z,20.55
2023-03-13T15:06:10.272Z,13.70
2023-03-13T15:11:35.033Z,24.48
2023-03-13T15:16:38.365Z,21.70
2023-03-13T15:21:41.206Z,27.98
2023-03-13T15:26:45.729Z,19.98
2023-03-13T15:31:49.396Z,8.20
2023-03-13T15:36:57.164Z,11.13
2023-03-13T15:41:59.408Z,10.45
2023-03-13T15:47:01.628Z,9.70
2023-03-13T15:52:03.928Z,17.35
2023-03-13T15:57:09.128Z,19.33
2023-03-13T16:02:16.719Z,22.58
2023-03-13T16:07:21.311Z,28.88
2023-03-13T16:12:28.841Z,36.60
2023-03-13T16:17:32.182Z,21.63
2023-03-13T16:22:36.770Z,29.33
2023-03-13T16:27:44.071Z,15.73
2023-03-13T16:32:48.538Z,23.13
2023-03-13T16:37:51.023Z,22.42
2023-03-13T16:42:57.725Z,33.13
2023-03-13T16:47:59.848Z,27.42
2023-03-13T16:53:03.260Z,29.33
2023-03-13T16:58:06.900Z,24.75
2023-03-13T17:03:09.235Z,23.90
2023-03-13T17:08:14.341Z,35.35
2023-03-13T17:13:16.711Z,19.85
2023-03-13T17:18:20.583Z,28.92
2023-03-13T17:23:25.489Z,22.30
2023-03-13T17:28:28.957Z,26.30
2023-03-13T17:33:33.043Z,27.23
2023-03-13T17:38:35.121Z,30.58
2023-03-13T17:43:39.538Z,22.45
2023-03-13T17:48:42.023Z,23.48
2023-03-13T17:53:45.330Z,31.70
2023-03-13T17:58:50.287Z,22.33
2023-03-13T18:03:52.558Z,21.38
2023-03-13T18:08:57.847Z,9.77
2023-03-13T18:14:01.247Z,6.18
2023-03-13T18:19:05.764Z,19.08
2023-03-13T18:24:08.334Z,6.75
2023-03-13T18:29:27.152Z,7.68
2023-03-13T18:34:30.086Z,6.32
2023-03-13T18:39:33.332Z,9.73
2023-03-13T18:44:35.562Z,7.95
2023-03-13T18:49:37.625Z,8.38
2023-03-13T18:54:39.960Z,13.73
2023-03-13T18:59:42.548Z,8.75
2023-03-13T19:04:47.163Z,9.77
2023-03-13T19:09:49.365Z,7.97
2023-03-13T19:14:51.420Z,7.63
2023-03-13T19:19:57.469Z,17.23
2023-03-13T19:24:59.680Z,11.00
2023-03-13T19:30:01.887Z,10.18
2023-03-13T19:35:04.205Z,18.70
2023-03-13T19:40:15.830Z,13.05
2023-03-13T19:45:19.744Z,6.72
2023-03-13T19:50:27.593Z,14.18
2023-03-13T19:55:29.734Z,12.02
2023-03-13T20:00:31.831Z,16.95
2023-03-13T20:05:33.996Z,19.17
2023-03-13T20:10:36.689Z,25.05
2023-03-13T20:15:38.844Z,30.65
2023-03-13T20:20:41.082Z,11.77
2023-03-13T20:25:43.186Z,11.45
2023-03-13T20:30:45.734Z,14.98
2023-03-13T20:35:47.992Z,18.98
2023-03-13T20:40:54.477Z,25.98
2023-03-13T20:45:56.679Z,20.50
2023-03-13T20:51:00.877Z,26.90
2023-03-13T20:56:06.802Z,14.80
2023-03-13T21:01:09.211Z,43.17
2023-03-13T21:06:13.364Z,33.03
2023-03-13T21:11:18.295Z,22.20
2023-03-13T21:16:20.539Z,24.60
2023-03-13T21:21:22.996Z,26.65
2023-03-13T21:26:25.203Z,20.63
2023-03-13T21:31:27.389Z,23.10
2023-03-13T21:36:29.569Z,14.75
2023-03-13T21:41:35.196Z,17.35
2023-03-13T21:46:37.328Z,18.45
2023-03-13T21:51:39.449Z,17.05
2023-03-13T21:56:41.545Z,15.65
2023-03-13T22:01:44.923Z,8.63
2023-03-13T22:06:49.169Z,10.75
2023-03-13T22:11:51.987Z,32.03
2023-03-13T22:16:54.346Z,42.38
2023-03-13T22:21:56.566Z,27.75
2023-03-13T22:26:58.716Z,17.80
2023-03-13T22:32:04.709Z,13.05
2023-03-13T22:37:07.304Z,15.23
2023-03-13T22:42:09.516Z,28.15
2023-03-13T22:47:11.671Z,22.75
2023-03-13T22:52:13.841Z,8.57
2023-03-13T22:57:15.989Z,29.58
2023-03-13T23:02:18.147Z,19.85
2023-03-13T23:07:22.927Z,39.50
2023-03-13T23:12:25.984Z,24.50
2023-03-13T23:17:32.033Z,29.60
2023-03-13T23:22:52.852Z,8.68
2023-03-13T23:27:55.043Z,10.75
2023-03-13T23:32:57.598Z,19.45
2023-03-13T23:37:59.707Z,22.13
2023-03-13T23:43:02.002Z,30.58
2023-03-13T23:48:04.397Z,47.08
2023-03-13T23:53:06.601Z,29.95
2023-03-13T23:58:09.144Z,32.60
